createdAt,value
2019-04-10T00:01:25.900Z,22.93
2019-04-10T00:03:58.687Z,23.40
2019-04-10T00:06:30.008Z,26.93
2019-04-10T00:09:02.945Z,24.30
2019-04-10T00:11:36.674Z,22.65
2019-04-10T00:14:08.360Z,27.40
2019-04-10T00:16:40.488Z,26.45
2019-04-10T00:19:12.788Z,22.77
2019-04-10T00:21:45.217Z,23.32
2019-04-10T00:24:16.917Z,24.00
2019-04-10T00:26:48.255Z,24.43
2019-04-10T00:29:20.334Z,25.15
2019-04-10T00:31:54.142Z,24.30
2019-04-10T00:34:25.729Z,26.00
2019-04-10T00:36:57.646Z,23.80
2019-04-10T00:39:28.807Z,23.42
2019-04-10T00:42:00.863Z,25.92
2019-04-10T00:44:32.190Z,23.75
2019-04-10T00:47:04.511Z,23.32
2019-04-10T00:49:36.548Z,22.52
2019-04-10T00:52:08.031Z,24.00
2019-04-10T00:54:39.331Z,21.82
2019-04-10T00:57:11.214Z,21.90
2019-04-10T00:59:42.269Z,22.58
2019-04-10T01:02:14.975Z,21.70
2019-04-10T01:04:46.724Z,22.37
2019-04-10T01:07:18.893Z,22.80
2019-04-10T01:09:50.433Z,20.15
2019-04-10T01:12:22.079Z,20.90
2019-04-10T01:14:54.034Z,19.67
2019-04-10T01:17:26.334Z,20.82
2019-04-10T01:19:58.493Z,19.35
2019-04-10T01:22:30.890Z,19.25
2019-04-10T01:25:02.289Z,18.92
2019-04-10T01:27:34.109Z,20.82
2019-04-10T01:30:07.073Z,19.05
2019-04-10T01:32:38.412Z,17.87
2019-04-10T01:35:09.977Z,17.25
2019-04-10T01:37:49.504Z,16.82
2019-04-10T01:40:15.002Z,19.10
2019-04-10T01:42:59.959Z,16.42
2019-04-10T01:45:20.031Z,17.57
2019-04-10T01:47:51.282Z,14.63
2019-04-10T01:50:22.597Z,15.93
2019-04-10T01:52:53.714Z,15.60
2019-04-10T01:55:29.546Z,17.27
2019-04-10T01:58:00.968Z,14.35
2019-04-10T02:00:32.843Z,16.50
2019-04-10T02:03:04.137Z,16.90
2019-04-10T02:05:36.592Z,15.25
2019-04-10T02:08:11.427Z,15.13
2019-04-10T02:10:41.224Z,15.20
2019-04-10T02:13:12.685Z,15.83
2019-04-10T02:15:44.112Z,16.97
2019-04-10T02:18:15.291Z,15.55
2019-04-10T02:20:47.366Z,16.52
2019-04-10T02:23:19.341Z,14.45
2019-04-10T02:25:50.939Z,14.50
2019-04-10T02:28:22.778Z,14.68
2019-04-10T02:30:54.552Z,16.23
2019-04-10T02:33:27.526Z,16.17
2019-04-10T02:35:59.187Z,14.78
2019-04-10T02:38:48.963Z,15.50
2019-04-10T02:41:03.598Z,15.65
2019-04-10T02:43:36.028Z,16.00
2019-04-10T02:46:08.335Z,18.57
2019-04-10T02:48:41.553Z,16.32
2019-04-10T02:51:13.674Z,19.20
2019-04-10T02:53:45.941Z,18.37
2019-04-10T02:56:18.121Z,18.00
2019-04-10T02:58:51.557Z,20.72
2019-04-10T03:01:25.065Z,19.15
2019-04-10T03:03:57.070Z,20.12
2019-04-10T03:06:29.282Z,18.70
2019-04-10T03:09:16.340Z,25.05
2019-04-10T03:11:35.397Z,22.35
2019-04-10T03:14:08.023Z,19.92
2019-04-10T03:16:39.929Z,23.07
2019-04-10T03:19:11.616Z,23.65
2019-04-10T03:21:43.380Z,21.95
2019-04-10T03:24:14.924Z,19.70
2019-04-10T03:26:46.550Z,22.22
2019-04-10T03:29:18.285Z,23.38
2019-04-10T03:31:52.271Z,22.32
2019-04-10T03:34:27.818Z,24.23
2019-04-10T03:36:58.364Z,24.15
2019-04-10T03:39:31.699Z,25.97
2019-04-10T03:42:06.496Z,25.40
2019-04-10T03:44:38.886Z,24.75
2019-04-10T03:47:11.178Z,29.75
2019-04-10T03:49:42.664Z,28.45
2019-04-10T03:52:14.375Z,29.27
2019-04-10T03:54:48.163Z,28.05
2019-04-10T03:57:20.580Z,28.57
2019-04-10T03:59:51.934Z,30.32
2019-04-10T04:02:23.997Z,29.48
2019-04-10T04:04:55.935Z,31.82
2019-04-10T04:07:27.846Z,33.13
2019-04-10T04:10:00.195Z,30.90
2019-04-10T04:12:32.782Z,32.85
2019-04-10T04:15:05.386Z,33.05
2019-04-10T04:17:37.815Z,31.97
2019-04-10T04:20:09.329Z,38.02
2019-04-10T04:22:41.187Z,36.13
2019-04-10T04:25:13.063Z,39.35
2019-04-10T04:27:44.746Z,32.23
2019-04-10T04:30:16.980Z,34.35
2019-04-10T04:32:48.599Z,33.25
2019-04-10T04:35:20.258Z,35.98
2019-04-10T04:37:52.622Z,35.00
2019-04-10T04:40:25.898Z,33.42
2019-04-10T04:42:58.029Z,35.08
2019-04-10T04:45:30.020Z,36.30
2019-04-10T04:48:01.829Z,34.00
2019-04-10T04:50:34.226Z,36.95
2019-04-10T04:53:06.680Z,35.90
2019-04-10T04:55:39.428Z,40.12
2019-04-10T04:58:11.749Z,37.28
2019-04-10T05:00:42.993Z,40.10
2019-04-10T05:03:14.606Z,40.43
2019-04-10T05:05:45.766Z,36.08
2019-04-10T05:08:17.525Z,39.13
2019-04-10T05:10:50.192Z,40.78
2019-04-10T05:13:22.342Z,37.67
2019-04-10T05:15:53.944Z,40.00
2019-04-10T05:18:25.442Z,41.33
2019-04-10T05:20:56.815Z,40.92
2019-04-10T05:23:28.836Z,40.85
2019-04-10T05:26:00.565Z,35.95
2019-04-10T05:28:32.738Z,39.80
2019-04-10T05:31:04.073Z,42.20
2019-04-10T05:33:36.607Z,39.55
2019-04-10T05:36:08.937Z,41.75
2019-04-10T05:38:40.208Z,42.98
2019-04-10T05:41:11.502Z,40.03
2019-04-10T05:43:42.843Z,42.40
2019-04-10T05:46:15.118Z,41.28
2019-04-10T05:48:46.358Z,39.38
2019-04-10T05:51:17.637Z,40.58
2019-04-10T05:53:51.346Z,42.53
2019-04-10T05:56:22.517Z,43.08
2019-04-10T05:58:54.599Z,45.60
2019-04-10T06:01:35.241Z,41.98
2019-04-10T06:03:59.417Z,45.33
2019-04-10T06:06:30.718Z,40.40
2019-04-10T06:09:02.583Z,43.20
2019-04-10T06:11:35.127Z,45.67
2019-04-10T06:14:06.652Z,41.95
2019-04-10T06:16:37.817Z,44.53
2019-04-10T06:19:09.514Z,44.23
2019-04-10T06:21:41.134Z,48.35
2019-04-10T06:24:12.434Z,48.35
2019-04-10T06:26:43.739Z,46.92
2019-04-10T06:29:15.102Z,44.73
2019-04-10T06:31:47.198Z,51.80
2019-04-10T06:34:20.475Z,44.70
2019-04-10T06:36:52.032Z,49.65
2019-04-10T06:39:23.318Z,51.63
2019-04-10T06:41:55.985Z,51.18
2019-04-10T06:44:28.767Z,42.05
2019-04-10T06:47:00.382Z,52.03
2019-04-10T06:49:33.094Z,44.42
2019-04-10T06:52:04.748Z,48.52
2019-04-10T06:54:36.483Z,46.37
2019-04-10T06:57:08.284Z,44.48
2019-04-10T06:59:40.016Z,44.45
2019-04-10T07:02:21.779Z,44.13
2019-04-10T07:04:51.553Z,42.75
2019-04-10T07:07:20.241Z,42.98
2019-04-10T07:09:52.315Z,40.83
2019-04-10T07:12:30.142Z,40.12
2019-04-10T07:14:59.734Z,38.53
2019-04-10T07:17:35.602Z,35.50
2019-04-10T07:20:05.319Z,41.33
2019-04-10T07:22:44.568Z,47.62
2019-04-10T07:25:12.706Z,38.50
2019-04-10T07:27:44.149Z,37.70
2019-04-10T07:30:17.327Z,38.88
2019-04-10T07:32:49.213Z,39.00
2019-04-10T07:35:21.858Z,37.53
2019-04-10T07:37:56.432Z,34.73
2019-04-10T07:40:28.247Z,37.08
2019-04-10T07:43:00.677Z,35.45
2019-04-10T07:45:32.097Z,35.45
2019-04-10T07:48:04.447Z,31.85
2019-04-10T07:50:37.124Z,34.60
2019-04-10T07:53:08.564Z,36.60
2019-04-10T07:55:39.810Z,33.42
2019-04-10T07:58:11.116Z,31.87
2019-04-10T08:00:42.943Z,34.03
2019-04-10T08:03:14.728Z,31.37
2019-04-10T08:05:46.114Z,32.83
2019-04-10T08:08:17.541Z,30.85
2019-04-10T08:10:49.153Z,39.78
2019-04-10T08:13:20.485Z,29.90
2019-04-10T08:15:52.254Z,31.85
2019-04-10T08:18:23.593Z,32.08
2019-04-10T08:20:55.228Z,32.30
2019-04-10T08:23:28.122Z,31.55
2019-04-10T08:26:00.106Z,32.10
2019-04-10T08:28:32.667Z,31.73
2019-04-10T08:31:04.469Z,29.87
2019-04-10T08:33:36.684Z,31.50
2019-04-10T08:36:08.031Z,32.03
2019-04-10T08:38:40.079Z,29.92
2019-04-10T08:41:11.449Z,32.50
2019-04-10T08:43:42.904Z,33.53
2019-04-10T08:46:14.453Z,33.98
2019-04-10T08:48:46.267Z,31.60
2019-04-10T08:51:17.913Z,28.90
2019-04-10T08:53:49.179Z,30.45
2019-04-10T08:56:20.771Z,29.72
2019-04-10T08:58:52.173Z,30.00
2019-04-10T09:01:23.530Z,30.72
2019-04-10T09:03:55.222Z,30.32
2019-04-10T09:06:27.258Z,28.35
2019-04-10T09:08:59.357Z,29.48
2019-04-10T09:11:32.968Z,31.37
2019-04-10T09:14:05.239Z,27.30
2019-04-10T09:16:36.503Z,26.40
2019-04-10T09:19:07.670Z,28.60
2019-04-10T09:21:38.924Z,28.57
2019-04-10T09:24:10.285Z,29.27
2019-04-10T09:26:41.541Z,30.37
2019-04-10T09:29:13.994Z,28.15
2019-04-10T09:31:46.071Z,32.53
2019-04-10T09:34:19.910Z,28.40
2019-04-10T09:36:53.395Z,28.27
2019-04-10T09:39:27.583Z,28.73
2019-04-10T09:41:59.051Z,28.27
2019-04-10T09:44:30.506Z,30.10
2019-04-10T09:47:02.143Z,30.90
2019-04-10T09:49:40.371Z,31.00
2019-04-10T09:52:06.943Z,29.45
2019-04-10T09:54:38.549Z,32.25
2019-04-10T09:57:09.805Z,29.23
2019-04-10T09:59:41.306Z,61.05
2019-04-10T10:02:13.254Z,29.63
2019-04-10T10:04:46.014Z,27.40
2019-04-10T10:07:18.637Z,28.32
2019-04-10T10:09:49.904Z,27.93
2019-04-10T10:12:21.167Z,30.30
2019-04-10T10:14:52.588Z,26.60
2019-04-10T10:17:24.446Z,25.90
2019-04-10T10:19:55.709Z,25.23
2019-04-10T10:22:27.414Z,24.65
2019-04-10T10:24:59.373Z,24.02
2019-04-10T10:27:30.860Z,26.45
2019-04-10T10:30:02.546Z,25.88
2019-04-10T10:32:35.140Z,28.45
2019-04-10T10:35:07.406Z,27.20
2019-04-10T10:37:39.076Z,25.10
2019-04-10T10:40:12.193Z,25.12
2019-04-10T10:42:43.554Z,28.62
2019-04-10T10:45:16.006Z,26.60
2019-04-10T10:47:48.484Z,23.35
2019-04-10T10:50:19.909Z,24.35
2019-04-10T10:52:52.144Z,25.40
2019-04-10T10:55:25.413Z,25.70
2019-04-10T10:57:59.406Z,24.65
2019-04-10T11:00:31.444Z,25.12
2019-04-10T11:03:02.909Z,26.05
2019-04-10T11:05:37.156Z,23.92
2019-04-10T11:08:08.532Z,23.32
2019-04-10T11:10:41.079Z,22.85
2019-04-10T11:13:14.926Z,25.12
2019-04-10T11:15:46.422Z,24.45
2019-04-10T11:18:19.279Z,21.52
2019-04-10T11:20:50.658Z,20.43
2019-04-10T11:23:22.236Z,19.65
2019-04-10T11:25:55.146Z,21.15
2019-04-10T11:31:01.721Z,20.40
2019-04-10T11:33:34.799Z,19.12
2019-04-10T11:36:07.755Z,17.60
2019-04-10T11:38:39.875Z,16.02
2019-04-10T11:41:12.514Z,18.35
2019-04-10T11:43:44.608Z,21.02
2019-04-10T11:46:17.145Z,20.23
2019-04-10T11:48:49.312Z,20.25
2019-04-10T11:51:23.517Z,17.50
2019-04-10T11:53:56.951Z,19.92
2019-04-10T11:56:30.065Z,18.15
2019-04-10T11:59:01.643Z,18.90
2019-04-10T12:01:35.946Z,17.35
2019-04-10T12:04:10.727Z,16.42
2019-04-10T12:06:43.214Z,16.42
2019-04-10T12:10:01.867Z,17.35
2019-04-10T12:11:51.209Z,19.30
2019-04-10T12:14:23.634Z,17.40
2019-04-10T12:16:55.831Z,17.48
2019-04-10T12:19:27.165Z,17.37
2019-04-10T12:21:58.300Z,18.73
2019-04-10T12:24:30.300Z,19.12
2019-04-10T12:27:02.421Z,17.37
2019-04-10T12:29:34.984Z,21.90
2019-04-10T12:32:06.380Z,18.92
2019-04-10T12:34:38.292Z,19.27
2019-04-10T12:37:09.518Z,20.92
2019-04-10T12:39:41.244Z,16.95
2019-04-10T12:42:12.506Z,17.00
2019-04-10T12:44:44.158Z,18.77
2019-04-10T12:47:15.534Z,17.77
2019-04-10T12:49:47.663Z,17.23
2019-04-10T12:52:20.583Z,16.35
2019-04-10T12:54:53.239Z,16.07
2019-04-10T12:57:24.586Z,18.20
2019-04-10T13:00:01.383Z,18.07
2019-04-10T13:02:30.191Z,16.45
2019-04-10T13:05:02.923Z,19.95
2019-04-10T13:07:37.964Z,18.75
2019-04-10T13:10:09.290Z,17.80
2019-04-10T13:12:41.538Z,26.90
2019-04-10T13:15:15.147Z,17.50
2019-04-10T13:17:47.000Z,18.15
2019-04-10T13:20:19.909Z,19.17
2019-04-10T13:22:51.197Z,16.80
2019-04-10T13:25:23.954Z,19.85
2019-04-10T13:27:55.355Z,16.77
2019-04-10T13:30:27.057Z,17.32
2019-04-10T13:32:58.660Z,19.40
2019-04-10T13:35:30.277Z,16.25
2019-04-10T13:38:01.709Z,15.72
2019-04-10T13:40:33.772Z,14.78
2019-04-10T13:43:05.364Z,17.87
2019-04-10T13:45:37.420Z,16.27
2019-04-10T13:48:08.664Z,15.60
2019-04-10T13:50:41.077Z,16.40
2019-04-10T13:53:13.444Z,17.02
2019-04-10T13:55:44.872Z,18.35
2019-04-10T13:58:17.264Z,15.72
2019-04-10T14:00:49.674Z,15.95
2019-04-10T14:03:21.271Z,16.77
2019-04-10T14:05:52.873Z,14.80
2019-04-10T14:08:40.452Z,15.30
2019-04-10T14:10:57.835Z,13.98
2019-04-10T14:13:29.640Z,14.70
2019-04-10T14:16:02.299Z,18.62
2019-04-10T14:18:33.459Z,14.58
2019-04-10T14:21:09.705Z,15.48
2019-04-10T14:23:39.528Z,13.25
2019-04-10T14:26:42.013Z,15.15
2019-04-10T14:29:09.808Z,12.70
2019-04-10T14:31:46.699Z,11.80
2019-04-10T14:34:19.847Z,13.55
2019-04-10T14:36:52.726Z,12.98
2019-04-10T14:39:24.453Z,12.70
2019-04-10T14:41:55.738Z,11.73
2019-04-10T14:44:27.028Z,11.73
2019-04-10T14:46:58.298Z,12.45
2019-04-10T14:49:31.334Z,11.53
2019-04-10T14:52:03.265Z,11.28
2019-04-10T14:54:35.689Z,10.63
2019-04-10T14:57:07.551Z,10.13
2019-04-10T14:59:40.096Z,13.18
2019-04-10T15:02:12.657Z,10.95
2019-04-10T15:04:45.748Z,10.05
2019-04-10T15:07:18.210Z,14.93
2019-04-10T15:09:49.664Z,12.50
2019-04-10T15:12:20.772Z,10.43
2019-04-10T15:14:52.224Z,9.60
2019-04-10T15:17:23.802Z,9.68
2019-04-10T15:19:55.080Z,11.80
2019-04-10T15:22:27.562Z,10.20
2019-04-10T15:24:59.339Z,10.82
2019-04-10T15:27:31.597Z,10.18
2019-04-10T15:30:02.856Z,10.32
2019-04-10T15:32:35.925Z,10.25
2019-04-10T15:35:08.381Z,9.38
2019-04-10T15:37:39.762Z,9.18
2019-04-10T15:40:19.581Z,8.35
2019-04-10T15:42:46.116Z,9.93
2019-04-10T15:45:18.169Z,9.73
2019-04-10T15:47:54.161Z,9.25
2019-04-10T15:50:22.762Z,7.72
2019-04-10T15:52:55.675Z,11.97
2019-04-10T15:55:28.030Z,10.40
2019-04-10T15:58:02.042Z,9.70
2019-04-10T16:00:33.073Z,8.95
2019-04-10T16:03:05.005Z,12.47
2019-04-10T16:05:36.368Z,11.33
2019-04-10T16:08:08.161Z,7.60
2019-04-10T16:10:47.688Z,8.10
2019-04-10T16:13:37.165Z,9.98
2019-04-10T16:16:26.061Z,8.65
2019-04-10T16:19:08.454Z,8.95
2019-04-10T16:21:41.488Z,9.80
2019-04-10T16:24:14.459Z,8.05
2019-04-10T16:26:47.290Z,9.40
2019-04-10T16:29:20.212Z,10.50
2019-04-10T16:31:53.114Z,7.95
2019-04-10T16:34:24.893Z,8.63
2019-04-10T16:36:57.652Z,8.53
2019-04-10T16:39:30.084Z,8.95
2019-04-10T16:42:02.240Z,9.30
2019-04-10T16:44:33.732Z,7.65
2019-04-10T16:47:05.888Z,8.53
2019-04-10T16:49:37.565Z,8.28
2019-04-10T16:52:09.564Z,9.98
2019-04-10T16:54:41.027Z,7.83
2019-04-10T16:57:12.740Z,8.90
2019-04-10T16:59:44.508Z,7.60
2019-04-10T17:02:15.802Z,9.20
2019-04-10T17:04:47.997Z,7.65
2019-04-10T17:07:19.634Z,10.10
2019-04-10T17:09:51.479Z,6.97
2019-04-10T17:12:23.252Z,11.75
2019-04-10T17:14:55.428Z,7.12
2019-04-10T17:17:26.888Z,6.58
2019-04-10T17:19:59.501Z,7.42
2019-04-10T17:22:39.076Z,7.97
2019-04-10T17:25:06.317Z,8.28
2019-04-10T17:27:39.407Z,7.20
2019-04-10T17:30:11.650Z,7.28
2019-04-10T17:32:43.054Z,8.88
2019-04-10T17:35:15.714Z,10.35
2019-04-10T17:37:47.782Z,7.03
2019-04-10T17:40:31.086Z,7.35
2019-04-10T17:42:52.838Z,8.23
2019-04-10T17:45:25.808Z,6.75
2019-04-10T17:47:57.994Z,6.92
2019-04-10T17:50:30.045Z,7.28
2019-04-10T17:53:01.860Z,6.58
2019-04-10T17:55:33.657Z,5.80
2019-04-10T17:58:05.661Z,6.55
2019-04-10T18:00:45.183Z,6.58
2019-04-10T18:03:18.638Z,10.90
2019-04-10T18:05:50.940Z,8.70
2019-04-10T18:08:26.379Z,7.40
2019-04-10T18:10:57.134Z,8.03
2019-04-10T18:13:28.893Z,6.50
2019-04-10T18:16:00.517Z,8.58
2019-04-10T18:18:32.639Z,7.83
2019-04-10T18:21:04.492Z,6.53
2019-04-10T18:23:36.346Z,6.60
2019-04-10T18:26:08.742Z,6.05
2019-04-10T18:28:41.387Z,6.97
2019-04-10T18:31:13.078Z,10.13
2019-04-10T18:33:45.282Z,8.20
2019-04-10T18:36:17.528Z,6.58
2019-04-10T18:38:48.631Z,6.40
2019-04-10T18:41:19.996Z,9.98
2019-04-10T18:43:50.995Z,6.87
2019-04-10T18:46:22.517Z,6.78
2019-04-10T18:48:56.841Z,7.65
2019-04-10T18:51:28.280Z,11.05
2019-04-10T18:53:59.736Z,8.28
2019-04-10T18:56:31.402Z,7.80
2019-04-10T18:59:12.392Z,6.55
2019-04-10T19:01:51.736Z,8.20
2019-04-10T19:04:39.158Z,9.48
2019-04-10T19:07:11.223Z,11.10
2019-04-10T19:09:43.244Z,7.62
2019-04-10T19:12:14.709Z,7.75
2019-04-10T19:14:46.705Z,9.30
2019-04-10T19:17:19.000Z,9.58
2019-04-10T19:19:50.840Z,7.70
2019-04-10T19:22:22.240Z,12.68
2019-04-10T19:24:54.877Z,7.00
2019-04-10T19:27:26.724Z,10.90
2019-04-10T19:29:59.084Z,8.88
2019-04-10T19:32:35.291Z,18.82
2019-04-10T19:35:07.677Z,8.30
2019-04-10T19:37:39.257Z,9.13
2019-04-10T19:40:11.319Z,6.25
2019-04-10T19:42:43.758Z,7.20
2019-04-10T19:45:15.355Z,7.75
2019-04-10T19:47:46.593Z,7.58
2019-04-10T19:50:19.328Z,8.10
2019-04-10T19:52:51.121Z,7.15
2019-04-10T19:55:23.970Z,11.08
2019-04-10T19:57:55.455Z,8.88
2019-04-10T20:00:31.069Z,10.00
2019-04-10T20:03:02.196Z,8.68
2019-04-10T20:05:33.695Z,8.20
2019-04-10T20:08:05.722Z,7.15
2019-04-10T20:10:37.435Z,7.90
2019-04-10T20:13:08.948Z,7.22
2019-04-10T20:15:41.029Z,7.35
2019-04-10T20:18:12.693Z,10.58
2019-04-10T20:20:43.945Z,6.55
2019-04-10T20:23:15.981Z,8.83
2019-04-10T20:25:48.507Z,8.70
2019-04-10T20:28:20.608Z,8.10
2019-04-10T20:30:54.573Z,8.10
2019-04-10T20:33:25.068Z,7.20
2019-04-10T20:35:56.507Z,7.92
2019-04-10T20:38:27.997Z,8.08
2019-04-10T20:41:00.324Z,7.28
2019-04-10T20:43:33.688Z,7.35
2019-04-10T20:46:06.331Z,9.28
2019-04-10T20:48:40.369Z,8.48
2019-04-10T20:51:12.448Z,8.30
2019-04-10T20:53:44.339Z,8.73
2019-04-10T20:56:18.283Z,7.80
2019-04-10T20:58:50.533Z,6.85
2019-04-10T21:01:22.416Z,7.65
2019-04-10T21:03:55.261Z,5.97
2019-04-10T21:06:27.253Z,7.67
2019-04-10T21:08:58.940Z,7.47
2019-04-10T21:11:31.317Z,7.40
2019-04-10T21:14:03.069Z,6.80
2019-04-10T21:16:35.753Z,9.35
2019-04-10T21:19:06.969Z,7.35
2019-04-10T21:21:39.098Z,7.12
2019-04-10T21:24:11.373Z,6.70
2019-04-10T21:26:42.711Z,7.12
2019-04-10T21:29:21.046Z,7.33
2019-04-10T21:32:09.735Z,6.58
2019-04-10T21:34:43.242Z,6.25
2019-04-10T21:37:15.834Z,7.40
2019-04-10T21:39:48.138Z,7.20
2019-04-10T21:42:22.754Z,7.12
2019-04-10T21:44:53.379Z,5.78
2019-04-10T21:47:25.671Z,10.58
2019-04-10T21:49:57.308Z,8.65
2019-04-10T21:52:29.072Z,8.33
2019-04-10T21:55:00.729Z,7.33
2019-04-10T21:57:32.558Z,7.25
2019-04-10T22:00:03.882Z,6.92
2019-04-10T22:02:37.993Z,7.15
2019-04-10T22:05:10.212Z,8.60
2019-04-10T22:08:01.134Z,7.33
2019-04-10T22:10:37.444Z,6.97
2019-04-10T22:13:09.053Z,6.25
2019-04-10T22:15:42.041Z,5.85
2019-04-10T22:18:13.366Z,6.45
2019-04-10T22:20:44.680Z,7.67
2019-04-10T22:23:16.276Z,7.22
2019-04-10T22:25:47.968Z,11.35
2019-04-10T22:28:19.451Z,7.25
2019-04-10T22:30:50.720Z,8.38
2019-04-10T22:33:22.288Z,6.25
2019-04-10T22:35:53.447Z,6.78
2019-04-10T22:38:25.011Z,9.10
2019-04-10T22:40:58.084Z,5.95
2019-04-10T22:43:30.162Z,6.60
2019-04-10T22:46:02.589Z,6.75
2019-04-10T22:48:33.965Z,6.17
2019-04-10T22:51:07.955Z,6.17
2019-04-10T22:53:39.667Z,6.30
2019-04-10T22:56:10.958Z,6.37
2019-04-10T22:58:43.149Z,6.33
2019-04-10T23:01:15.853Z,7.30
2019-04-10T23:03:47.536Z,7.45
2019-04-10T23:06:18.781Z,6.67
2019-04-10T23:08:49.901Z,8.13
2019-04-10T23:11:30.442Z,8.00
2019-04-10T23:13:54.307Z,6.80
2019-04-10T23:16:26.168Z,8.18
2019-04-10T23:18:58.211Z,7.33
2019-04-10T23:21:30.397Z,5.90
2019-04-10T23:24:01.674Z,8.23
2019-04-10T23:26:33.326Z,7.50
2019-04-10T23:29:06.182Z,9.83
2019-04-10T23:31:37.459Z,8.83
2019-04-10T23:34:08.743Z,8.58
2019-04-10T23:36:40.389Z,6.58
2019-04-10T23:39:12.259Z,5.92
2019-04-10T23:41:43.483Z,6.47
2019-04-10T23:44:14.794Z,7.53
2019-04-10T23:46:45.944Z,7.33
2019-04-10T23:49:17.375Z,7.90
2019-04-10T23:51:49.561Z,7.62
2019-04-10T23:54:21.561Z,7.28
2019-04-10T23:56:54.678Z,7.37
2019-04-10T23:59:26.677Z,6.53
